Hamilton, Michigan
Current Conditions -  °F | °C
As of 8:53 AM on Sunday 23 Nov 2014 (Local Time) from KBIV Reporting Station
Overcast Overcast  
Wind Chill: 50°   Ceiling: 3800
Heat Index: 50°   Visibility: 10mi
Dew Point: 44°   Wind: 13mph
Humidity: 80%   Direction: 160°SSE
Pressure: 29.8"   Gusts: NA
Location:  42.68°N, 86.01°W
Report Text: KBIV 231353Z AUTO 16011KT 10SM OVC038 10/07 A2980 RMK AO2 SLP073 T01000067
Loading
Personal Weather Stations






























Interactive Weather Map New forecast layout! Learn more

10-Day Weather Forecast

Advertisements
Track Severe Weather on mobile